createdAt,value
2018-09-04T00:00:17.809Z,19.32
2018-09-04T00:01:17.785Z,19.38
2018-09-04T00:02:17.755Z,19.38
2018-09-04T00:03:17.759Z,19.30
2018-09-04T00:04:17.740Z,19.32
2018-09-04T00:05:17.740Z,19.30
2018-09-04T00:06:17.752Z,19.31
2018-09-04T00:07:17.719Z,19.25
2018-09-04T00:08:17.702Z,19.25
2018-09-04T00:09:17.691Z,19.23
2018-09-04T00:10:17.696Z,19.20
2018-09-04T00:11:17.684Z,19.20
2018-09-04T00:12:17.654Z,19.28
2018-09-04T00:13:17.651Z,19.20
2018-09-04T00:14:17.636Z,19.25
2018-09-04T00:15:17.623Z,19.24
2018-09-04T00:16:17.636Z,19.27
2018-09-04T00:17:17.614Z,19.24
2018-09-04T00:18:17.591Z,19.13
2018-09-04T00:19:17.574Z,19.20
2018-09-04T00:20:17.559Z,19.20
2018-09-04T00:21:17.572Z,19.20
2018-09-04T00:22:17.545Z,19.20
2018-09-04T00:23:17.548Z,19.27
2018-09-04T00:24:17.520Z,19.13
2018-09-04T00:25:17.507Z,19.17
2018-09-04T00:26:17.521Z,19.24
2018-09-04T00:27:17.485Z,19.28
2018-09-04T00:28:17.480Z,19.25
2018-09-04T00:29:17.468Z,19.25
2018-09-04T00:30:17.464Z,19.27
2018-09-04T00:31:17.478Z,19.25
2018-09-04T00:32:17.434Z,19.25
2018-09-04T00:33:17.429Z,19.25
2018-09-04T00:34:17.454Z,19.15
2018-09-04T00:35:17.418Z,19.20
2018-09-04T00:36:17.419Z,19.21
2018-09-04T00:37:17.382Z,19.15
2018-09-04T00:38:17.369Z,19.15
2018-09-04T00:39:17.365Z,19.24
2018-09-04T00:40:17.339Z,19.23
2018-09-04T00:41:17.350Z,19.23
2018-09-04T00:42:17.334Z,19.21
2018-09-04T00:43:17.315Z,19.25
2018-09-04T00:44:17.321Z,19.21
2018-09-04T00:45:17.295Z,19.17
2018-09-04T00:46:17.308Z,19.27
2018-09-04T00:47:17.264Z,19.21
2018-09-04T00:48:17.269Z,19.17
2018-09-04T00:49:17.239Z,19.27
2018-09-04T00:50:17.230Z,19.23
2018-09-04T00:51:17.254Z,19.23
2018-09-04T00:52:17.219Z,19.21
2018-09-04T00:53:17.225Z,19.21
2018-09-04T00:54:17.201Z,19.24
2018-09-04T00:55:17.195Z,19.23
2018-09-04T00:56:17.213Z,19.20
2018-09-04T00:57:17.172Z,19.12
2018-09-04T00:58:17.147Z,19.06
2018-09-04T00:59:17.140Z,19.13
2018-09-04T01:00:17.121Z,19.09
2018-09-04T01:01:17.124Z,19.12
2018-09-04T01:02:17.116Z,19.01
2018-09-04T01:03:17.106Z,19.01
2018-09-04T01:04:17.082Z,18.94
2018-09-04T01:05:17.116Z,18.91
2018-09-04T01:06:17.099Z,18.93
2018-09-04T01:07:17.051Z,18.87
2018-09-04T01:08:17.042Z,18.87
2018-09-04T01:09:17.036Z,18.84
2018-09-04T01:10:17.030Z,18.83
2018-09-04T01:11:17.007Z,18.76
2018-09-04T01:12:17.000Z,18.79
2018-09-04T01:13:16.985Z,18.84
2018-09-04T01:14:16.975Z,18.78
2018-09-04T01:15:16.970Z,18.72
2018-09-04T01:16:16.960Z,18.72
2018-09-04T01:17:16.969Z,18.57
2018-09-04T01:18:16.922Z,18.68
2018-09-04T01:19:16.926Z,18.47
2018-09-04T01:20:16.914Z,18.57
2018-09-04T01:21:16.909Z,18.57
2018-09-04T01:22:16.911Z,18.60
2018-09-04T01:23:16.871Z,18.50
2018-09-04T01:24:16.869Z,18.51
2018-09-04T01:25:16.869Z,18.44
2018-09-04T01:26:16.857Z,18.41
2018-09-04T01:27:16.858Z,18.39
2018-09-04T01:28:16.816Z,18.44
2018-09-04T01:29:16.814Z,18.41
2018-09-04T01:30:16.796Z,18.42
2018-09-04T01:31:16.783Z,18.56
2018-09-04T01:32:16.797Z,18.47
2018-09-04T01:33:16.779Z,18.46
2018-09-04T01:34:16.755Z,18.39
2018-09-04T01:35:16.739Z,18.41
2018-09-04T01:36:16.733Z,18.56
2018-09-04T01:37:16.754Z,18.47
2018-09-04T01:38:16.722Z,18.54
2018-09-04T01:39:16.716Z,18.57
2018-09-04T01:40:16.681Z,18.59
2018-09-04T01:41:16.673Z,18.60
2018-09-04T01:42:16.693Z,18.54
2018-09-04T01:43:16.670Z,18.68
2018-09-04T01:44:16.648Z,18.66
2018-09-04T01:45:16.635Z,18.68
2018-09-04T01:46:16.618Z,18.68
2018-09-04T01:47:16.625Z,18.69
2018-09-04T01:48:16.605Z,18.66
2018-09-04T01:49:16.589Z,18.56
2018-09-04T01:50:16.579Z,18.71
2018-09-04T01:51:16.568Z,18.69
2018-09-04T01:52:16.586Z,18.69
2018-09-04T01:54:26.026Z,18.83
2018-09-04T01:55:27.014Z,18.82
2018-09-04T01:56:27.003Z,18.82
2018-09-04T01:57:27.017Z,18.76
2018-09-04T01:58:26.975Z,18.82
2018-09-04T01:59:26.973Z,18.74
2018-09-04T02:00:26.965Z,18.76
2018-09-04T02:01:26.949Z,18.82
2018-09-04T02:02:27.509Z,18.78
2018-09-04T02:03:26.933Z,18.83
2018-09-04T02:04:26.920Z,18.79
2018-09-04T02:05:26.913Z,18.76
2018-09-04T02:06:26.900Z,18.84
2018-09-04T02:07:26.882Z,18.76
2018-09-04T02:08:26.912Z,18.76
2018-09-04T02:09:26.864Z,18.75
2018-09-04T02:10:26.849Z,18.76
2018-09-04T02:11:26.833Z,18.78
2018-09-04T02:12:26.832Z,18.69
2018-09-04T02:13:26.837Z,18.76
2018-09-04T02:14:26.815Z,18.69
2018-09-04T02:15:26.790Z,18.66
2018-09-04T02:16:26.789Z,18.69
2018-09-04T02:17:26.775Z,18.71
2018-09-04T02:18:26.787Z,18.59
2018-09-04T02:19:26.764Z,18.74
2018-09-04T02:20:26.748Z,18.64
2018-09-04T02:21:26.735Z,18.64
2018-09-04T02:22:26.727Z,18.74
2018-09-04T02:23:26.733Z,18.71
2018-09-04T02:24:26.707Z,18.76
2018-09-04T02:25:26.688Z,18.65
2018-09-04T02:26:26.674Z,18.65
2018-09-04T02:27:26.658Z,18.72
2018-09-04T02:28:26.689Z,18.65
2018-09-04T02:29:26.652Z,18.56
2018-09-04T02:30:26.632Z,18.50
2018-09-04T02:31:26.623Z,18.60
2018-09-04T02:32:26.617Z,18.60
2018-09-04T02:33:26.632Z,18.53
2018-09-04T02:34:26.591Z,18.51
2018-09-04T02:35:26.581Z,18.60
2018-09-04T02:36:26.572Z,18.49
2018-09-04T02:37:26.563Z,18.53
2018-09-04T02:38:26.576Z,18.51
2018-09-04T02:39:26.556Z,18.56
2018-09-04T02:40:26.521Z,18.54
2018-09-04T02:41:26.521Z,18.39
2018-09-04T02:42:26.495Z,18.36
2018-09-04T02:43:26.504Z,18.50
2018-09-04T02:44:26.488Z,18.42
2018-09-04T02:45:26.477Z,18.44
2018-09-04T02:46:26.457Z,18.42
2018-09-04T02:47:26.441Z,18.44
2018-09-04T02:48:26.465Z,18.41
2018-09-04T02:49:26.432Z,18.44
2018-09-04T02:50:26.425Z,18.49
2018-09-04T02:51:26.407Z,18.41
2018-09-04T02:52:26.389Z,18.39
2018-09-04T02:53:26.422Z,18.41
2018-09-04T02:54:26.367Z,18.36
2018-09-04T02:55:26.349Z,18.28
2018-09-04T02:56:26.339Z,18.42
2018-09-04T02:57:26.332Z,18.44
2018-09-04T02:58:26.351Z,18.41
2018-09-04T02:59:26.322Z,18.42
2018-09-04T03:00:26.307Z,18.46
2018-09-04T03:01:26.283Z,18.49
2018-09-04T03:02:26.279Z,18.51
2018-09-04T03:03:26.285Z,18.49
2018-09-04T03:04:26.261Z,18.56
2018-09-04T03:05:26.292Z,18.59
2018-09-04T03:06:26.236Z,18.60
2018-09-04T03:07:26.229Z,18.62
2018-09-04T03:08:26.244Z,18.53
2018-09-04T03:09:26.237Z,18.53
2018-09-04T03:10:26.186Z,18.53
2018-09-04T03:11:26.181Z,18.50
2018-09-04T03:12:26.167Z,18.54
2018-09-04T03:13:26.187Z,18.41
2018-09-04T03:14:26.148Z,18.46
2018-09-04T03:15:26.142Z,18.39
2018-09-04T03:16:26.132Z,18.36
2018-09-04T03:17:26.125Z,18.46
2018-09-04T03:18:26.140Z,18.41
2018-09-04T03:19:26.102Z,18.41
2018-09-04T03:20:26.098Z,18.49
2018-09-04T03:21:26.071Z,18.31
2018-09-04T03:22:26.056Z,18.36
2018-09-04T03:23:26.071Z,18.29
2018-09-04T03:24:26.034Z,18.35
2018-09-04T03:25:26.033Z,18.28
2018-09-04T03:26:26.017Z,18.28
2018-09-04T03:27:26.005Z,18.23
2018-09-04T03:28:25.987Z,18.28
2018-09-04T03:29:26.020Z,18.23
2018-09-04T03:30:25.966Z,18.28
2018-09-04T03:31:26.501Z,18.23
2018-09-04T03:32:25.954Z,18.21
2018-09-04T03:33:25.945Z,18.28
2018-09-04T03:34:25.953Z,18.28
2018-09-04T03:35:25.918Z,18.31
2018-09-04T03:36:25.924Z,18.25
2018-09-04T03:37:25.899Z,18.25
2018-09-04T03:38:25.899Z,18.26
2018-09-04T03:39:25.894Z,18.34
2018-09-04T03:40:25.867Z,18.28
2018-09-04T03:41:25.844Z,18.31
2018-09-04T03:42:25.997Z,18.29
2018-09-04T03:43:25.823Z,18.23
2018-09-04T03:44:25.912Z,18.23
2018-09-04T03:45:25.815Z,18.21
2018-09-04T03:46:25.807Z,18.20
2018-09-04T03:47:25.780Z,18.14
2018-09-04T03:48:25.767Z,18.13
2018-09-04T03:49:25.783Z,18.11
2018-09-04T03:50:25.778Z,18.14
2018-09-04T03:51:25.750Z,18.13
2018-09-04T03:52:25.891Z,18.07
2018-09-04T03:53:25.732Z,18.02
2018-09-04T03:55:34.948Z,18.01
2018-09-04T03:56:35.890Z,17.98
2018-09-04T03:57:35.874Z,18.01
2018-09-04T03:58:35.866Z,18.07
2018-09-04T03:59:35.855Z,17.96
2018-09-04T04:00:35.866Z,17.96
2018-09-04T04:01:35.860Z,17.83
2018-09-04T04:02:35.819Z,17.84
2018-09-04T04:03:35.815Z,17.74
2018-09-04T04:04:35.796Z,17.79
2018-09-04T04:05:35.810Z,17.79
2018-09-04T04:06:35.769Z,17.77
2018-09-04T04:07:35.769Z,17.79
2018-09-04T04:08:35.747Z,17.77
2018-09-04T04:09:35.746Z,17.66
2018-09-04T04:10:35.751Z,17.71
2018-09-04T04:11:35.736Z,17.73
2018-09-04T04:12:35.736Z,17.60
2018-09-04T04:13:35.711Z,17.53
2018-09-04T04:14:35.687Z,17.57
2018-09-04T04:15:35.717Z,17.54
2018-09-04T04:16:35.663Z,17.53
2018-09-04T04:17:35.658Z,17.54
2018-09-04T04:18:35.638Z,17.63
2018-09-04T04:19:35.634Z,17.58
2018-09-04T04:20:35.646Z,17.57
2018-09-04T04:21:35.610Z,17.47
2018-09-04T04:22:35.593Z,17.58
2018-09-04T04:23:35.583Z,17.49
2018-09-04T04:24:35.587Z,17.45
2018-09-04T04:25:35.586Z,17.46
2018-09-04T04:26:35.564Z,17.36
2018-09-04T04:27:35.544Z,17.36
2018-09-04T04:28:35.536Z,17.43
2018-09-04T04:29:35.512Z,17.49
2018-09-04T04:30:35.534Z,17.43
2018-09-04T04:31:35.518Z,17.40
2018-09-04T04:32:35.509Z,17.39
2018-09-04T04:33:35.485Z,17.36
2018-09-04T04:34:35.473Z,17.46
2018-09-04T04:35:35.463Z,17.51
2018-09-04T04:36:35.446Z,17.45
2018-09-04T04:37:35.438Z,17.36
2018-09-04T04:38:35.425Z,17.25
2018-09-04T04:39:35.409Z,17.35
2018-09-04T04:40:35.412Z,17.36
2018-09-04T04:41:35.419Z,17.20
2018-09-04T04:42:35.387Z,17.28
2018-09-04T04:43:35.362Z,17.15
2018-09-04T04:44:35.359Z,17.03
2018-09-04T04:45:35.357Z,17.06
2018-09-04T04:46:35.339Z,17.00
2018-09-04T04:47:35.317Z,17.00
2018-09-04T04:48:35.328Z,16.99
2018-09-04T04:49:35.303Z,16.81
2018-09-04T04:50:35.307Z,16.96
2018-09-04T04:51:35.270Z,16.96
2018-09-04T04:52:35.269Z,16.87
2018-09-04T04:53:35.245Z,16.99
2018-09-04T04:54:35.240Z,16.95
2018-09-04T04:55:35.252Z,16.96
2018-09-04T04:56:35.226Z,17.03
2018-09-04T04:57:35.209Z,16.99
2018-09-04T04:58:35.196Z,17.05
2018-09-04T04:59:35.185Z,17.07
2018-09-04T05:00:35.185Z,17.03
2018-09-04T05:01:35.170Z,16.95
2018-09-04T05:02:35.148Z,16.92
2018-09-04T05:03:35.149Z,16.98
2018-09-04T05:04:35.141Z,17.18
2018-09-04T05:05:35.142Z,17.24
2018-09-04T05:06:35.118Z,17.17
2018-09-04T05:07:35.118Z,17.15
2018-09-04T05:08:35.086Z,17.15
2018-09-04T05:09:35.087Z,17.14
2018-09-04T05:10:35.104Z,17.15
2018-09-04T05:11:35.123Z,17.14
2018-09-04T05:12:35.053Z,17.14
2018-09-04T05:13:35.053Z,17.14
2018-09-04T05:14:35.025Z,17.15
2018-09-04T05:15:35.007Z,17.10
2018-09-04T05:16:35.042Z,17.09
2018-09-04T05:17:34.998Z,17.03
2018-09-04T05:18:35.111Z,17.07
2018-09-04T05:19:34.964Z,17.14
2018-09-04T05:20:34.962Z,17.12
2018-09-04T05:21:34.965Z,17.32
2018-09-04T05:22:35.015Z,17.39
2018-09-04T05:23:34.921Z,17.45
2018-09-04T05:24:34.920Z,17.46
2018-09-04T05:25:34.930Z,17.51
2018-09-04T05:26:34.914Z,17.46
2018-09-04T05:27:34.898Z,17.51
2018-09-04T05:28:34.874Z,17.45
2018-09-04T05:29:34.853Z,17.51
2018-09-04T05:30:34.846Z,17.51
2018-09-04T05:31:34.851Z,17.58
2018-09-04T05:32:34.843Z,17.57
2018-09-04T05:33:34.824Z,17.62
2018-09-04T05:34:34.816Z,17.57
2018-09-04T05:35:34.805Z,17.66
2018-09-04T05:36:34.850Z,17.65
2018-09-04T05:37:34.776Z,17.70
2018-09-04T05:38:34.750Z,17.68
2018-09-04T05:39:34.740Z,17.71
2018-09-04T05:40:34.735Z,17.77
2018-09-04T05:41:34.752Z,17.74
2018-09-04T05:42:34.730Z,17.81
2018-09-04T05:43:34.715Z,17.83
2018-09-04T05:44:34.720Z,17.76
2018-09-04T05:45:34.673Z,17.74
2018-09-04T05:46:34.704Z,17.70
2018-09-04T05:47:34.675Z,17.77
2018-09-04T05:48:34.642Z,17.77
2018-09-04T05:49:34.640Z,17.74
2018-09-04T05:50:34.613Z,17.84
2018-09-04T05:51:34.646Z,17.91
2018-09-04T05:52:34.640Z,17.84
2018-09-04T05:53:34.660Z,17.83
2018-09-04T05:54:34.580Z,17.95
2018-09-04T05:56:45.118Z,17.92
2018-09-04T05:57:45.946Z,17.99
2018-09-04T05:58:45.914Z,18.02
2018-09-04T05:59:45.903Z,17.96
2018-09-04T06:00:45.897Z,18.01
2018-09-04T06:01:45.900Z,17.99
2018-09-04T06:02:45.876Z,18.04
2018-09-04T06:03:45.866Z,18.10
2018-09-04T06:04:45.860Z,18.10
2018-09-04T06:05:45.861Z,18.16
2018-09-04T06:06:45.864Z,18.09
2018-09-04T06:07:45.836Z,18.16
2018-09-04T06:08:45.816Z,18.16
2018-09-04T06:09:45.790Z,18.28
2018-09-04T06:10:45.774Z,18.28
2018-09-04T06:11:45.788Z,18.29
2018-09-04T06:12:45.759Z,18.31
2018-09-04T06:13:45.833Z,18.38
2018-09-04T06:14:45.756Z,18.41
2018-09-04T06:15:45.748Z,18.51
2018-09-04T06:16:45.741Z,18.59
2018-09-04T06:17:46.025Z,18.64
2018-09-04T06:18:45.736Z,18.66
2018-09-04T06:19:45.747Z,18.75
2018-09-04T06:20:45.674Z,18.84
2018-09-04T06:21:45.698Z,18.83
2018-09-04T06:22:45.695Z,18.93
2018-09-04T06:23:45.638Z,18.90
2018-09-04T06:24:45.621Z,19.01
2018-09-04T06:25:45.616Z,19.06
2018-09-04T06:26:45.634Z,19.09
2018-09-04T06:27:45.604Z,19.17
2018-09-04T06:28:45.589Z,19.20
2018-09-04T06:29:45.601Z,19.27
2018-09-04T06:30:45.572Z,19.32
2018-09-04T06:31:45.588Z,19.43
2018-09-04T06:32:45.547Z,19.43
2018-09-04T06:33:45.528Z,19.43
2018-09-04T06:34:45.886Z,19.49
2018-09-04T06:35:45.508Z,19.61
2018-09-04T06:36:46.115Z,19.57
2018-09-04T06:37:45.493Z,19.65
2018-09-04T06:38:45.492Z,19.72
2018-09-04T06:39:45.496Z,19.72
2018-09-04T06:40:45.480Z,19.83
2018-09-04T06:41:46.201Z,19.82
2018-09-04T06:42:45.445Z,19.95
2018-09-04T06:43:45.571Z,19.92
2018-09-04T06:44:45.418Z,19.97
2018-09-04T06:45:45.413Z,20.00
2018-09-04T06:46:45.400Z,20.01
2018-09-04T06:47:45.395Z,20.02
2018-09-04T06:48:45.430Z,20.10
2018-09-04T06:49:45.380Z,20.05
2018-09-04T06:50:45.362Z,20.15
2018-09-04T06:51:45.414Z,20.15
2018-09-04T06:52:45.356Z,20.13
2018-09-04T06:53:45.541Z,20.17
2018-09-04T06:54:45.427Z,20.13
2018-09-04T06:55:45.358Z,20.15
2018-09-04T06:56:45.324Z,20.20
2018-09-04T06:57:45.316Z,20.20
2018-09-04T06:58:45.264Z,20.19
2018-09-04T06:59:45.286Z,20.34
2018-09-04T07:00:45.253Z,20.42
2018-09-04T07:01:45.230Z,20.42
2018-09-04T07:02:45.248Z,20.50
2018-09-04T07:03:45.229Z,20.46
2018-09-04T07:04:45.193Z,20.41
2018-09-04T07:05:45.190Z,20.42
2018-09-04T07:06:45.173Z,20.56
2018-09-04T07:07:45.197Z,20.53
2018-09-04T07:08:45.187Z,20.37
2018-09-04T07:09:45.156Z,20.51
2018-09-04T07:10:45.129Z,20.46
2018-09-04T07:11:45.126Z,20.61
2018-09-04T07:12:45.132Z,20.57
2018-09-04T07:13:45.101Z,20.66
2018-09-04T07:14:45.157Z,20.69
2018-09-04T07:15:45.087Z,20.78
2018-09-04T07:16:45.087Z,20.76
2018-09-04T07:17:45.107Z,20.76
2018-09-04T07:18:45.074Z,20.71
2018-09-04T07:19:45.051Z,20.72
2018-09-04T07:20:45.020Z,20.72
2018-09-04T07:21:45.029Z,20.69
2018-09-04T07:22:45.002Z,20.60
2018-09-04T07:23:45.034Z,20.58
2018-09-04T07:24:44.976Z,20.69
2018-09-04T07:25:44.980Z,20.68
2018-09-04T07:26:44.956Z,20.79
2018-09-04T07:27:44.955Z,20.72
2018-09-04T07:28:44.958Z,20.78
2018-09-04T07:29:44.949Z,20.71
2018-09-04T07:30:44.919Z,20.79
2018-09-04T07:31:44.904Z,20.87
2018-09-04T07:32:44.929Z,20.96
2018-09-04T07:33:44.904Z,20.97
2018-09-04T07:34:44.878Z,21.09
2018-09-04T07:35:44.857Z,20.98
2018-09-04T07:36:44.854Z,20.94
2018-09-04T07:37:44.855Z,20.97
2018-09-04T07:38:44.848Z,20.85
2018-09-04T07:39:44.838Z,20.78
2018-09-04T07:40:44.812Z,20.88
2018-09-04T07:41:44.862Z,20.81
2018-09-04T07:42:44.780Z,20.78
2018-09-04T07:43:45.124Z,20.79
2018-09-04T07:44:44.789Z,20.75
2018-09-04T07:45:44.762Z,20.66
2018-09-04T07:46:44.745Z,20.56
2018-09-04T07:47:44.736Z,20.50
2018-09-04T07:48:44.761Z,20.63
2018-09-04T07:49:44.835Z,20.66
2018-09-04T07:50:44.696Z,20.81
2018-09-04T07:51:44.688Z,20.73
2018-09-04T07:52:44.691Z,20.64
2018-09-04T07:53:44.689Z,20.68
2018-09-04T07:54:44.672Z,20.68
2018-09-04T07:55:44.658Z,20.53
2018-09-04T11:44:58.237Z,28.06
2018-09-04T11:45:59.158Z,28.24
2018-09-04T11:46:59.175Z,28.23
2018-09-04T11:47:59.104Z,28.21
2018-09-04T11:48:59.114Z,28.14
2018-09-04T11:49:59.153Z,28.14
2018-09-04T11:50:59.102Z,28.25
2018-09-04T11:51:59.088Z,28.18
2018-09-04T11:52:59.080Z,28.35
2018-09-04T11:53:59.058Z,28.50
2018-09-04T11:54:59.067Z,28.52
2018-09-04T11:55:59.042Z,28.70
2018-09-04T11:56:59.016Z,28.94
2018-09-04T11:57:59.010Z,29.02
2018-09-04T11:58:58.995Z,29.08
2018-09-04T11:59:58.983Z,29.12
2018-09-04T12:00:59.013Z,29.17
2018-09-04T12:01:58.996Z,29.05
2018-09-04T12:02:58.948Z,28.89
2018-09-04T12:03:58.947Z,28.82
2018-09-04T12:04:58.942Z,28.72
2018-09-04T12:05:58.947Z,28.72
2018-09-04T12:06:58.934Z,28.80
2018-09-04T12:07:58.912Z,29.07
2018-09-04T12:08:58.904Z,29.02
2018-09-04T12:09:58.886Z,28.91
2018-09-04T12:10:58.885Z,28.88
2018-09-04T12:11:58.875Z,28.83
2018-09-04T12:12:58.930Z,28.74
2018-09-04T12:13:58.990Z,28.73
2018-09-04T12:14:58.835Z,28.64
2018-09-04T12:15:58.840Z,28.55
2018-09-04T12:16:58.805Z,28.18
2018-09-04T12:17:58.797Z,28.28
2018-09-04T12:18:58.775Z,28.35
2018-09-04T12:19:58.768Z,28.51
2018-09-04T12:20:59.033Z,28.48
2018-09-04T12:21:58.756Z,28.55
2018-09-04T12:22:58.730Z,28.50
2018-09-04T12:23:58.732Z,28.46
2018-09-04T12:24:58.712Z,28.33
2018-09-04T12:25:58.734Z,28.23
2018-09-04T12:26:58.687Z,28.32
2018-09-04T12:27:58.680Z,28.24
2018-09-04T12:28:58.680Z,27.98
2018-09-04T12:29:58.666Z,27.50
2018-09-04T12:30:58.662Z,27.40
2018-09-04T12:31:58.643Z,27.15
2018-09-04T12:32:58.641Z,27.27
2018-09-04T12:33:58.629Z,27.35
2018-09-04T12:34:58.610Z,27.38
2018-09-04T12:35:59.419Z,27.25
2018-09-04T12:36:58.589Z,27.31
2018-09-04T12:37:58.577Z,27.33
2018-09-04T12:38:58.582Z,27.38
2018-09-04T12:39:58.551Z,27.30
2018-09-04T12:40:58.545Z,27.28
2018-09-04T12:41:58.567Z,27.33
2018-09-04T12:42:58.517Z,27.39
2018-09-04T12:43:58.528Z,27.40
2018-09-04T12:44:58.509Z,27.40
2018-09-04T12:45:58.493Z,27.31
2018-09-04T12:46:58.509Z,27.30
2018-09-04T12:47:58.518Z,27.13
2018-09-04T12:48:58.488Z,27.20
2018-09-04T12:49:58.465Z,27.30
2018-09-04T12:50:58.461Z,27.33
2018-09-04T12:51:58.454Z,27.40
2018-09-04T12:52:58.424Z,27.43
2018-09-04T12:53:58.421Z,27.38
2018-09-04T12:54:58.401Z,27.43
2018-09-04T12:55:58.383Z,27.53
2018-09-04T12:56:58.409Z,27.50
2018-09-04T12:57:58.402Z,27.42
2018-09-04T12:58:58.363Z,27.35
2018-09-04T12:59:58.349Z,27.25
2018-09-04T13:00:58.355Z,27.18
2018-09-04T13:01:58.466Z,27.20
2018-09-04T13:02:58.322Z,27.25
2018-09-04T13:03:58.349Z,27.21
2018-09-04T13:04:58.287Z,27.18
2018-09-04T13:05:58.285Z,27.18
2018-09-04T13:06:58.289Z,27.15
2018-09-04T13:07:58.246Z,27.23
2018-09-04T13:08:58.258Z,27.25
2018-09-04T13:09:58.238Z,27.28
2018-09-04T13:10:58.226Z,27.18
2018-09-04T13:11:58.233Z,27.16
2018-09-04T13:12:58.215Z,27.21
2018-09-04T13:13:58.182Z,27.20
2018-09-04T13:14:58.182Z,27.25
2018-09-04T13:15:58.162Z,27.27
2018-09-04T13:16:58.180Z,27.27
2018-09-04T13:17:58.174Z,27.38
2018-09-04T13:18:58.139Z,27.21
2018-09-04T13:19:58.115Z,27.28
2018-09-04T13:20:58.128Z,27.30
2018-09-04T13:21:58.174Z,27.16
2018-09-04T13:22:58.099Z,26.72
2018-09-04T13:23:58.076Z,26.56
2018-09-04T13:24:58.074Z,26.51
2018-09-04T13:25:58.088Z,26.44
2018-09-04T13:26:58.072Z,26.47
2018-09-04T13:27:58.054Z,26.35
2018-09-04T13:28:58.043Z,26.39
2018-09-04T13:29:58.048Z,26.17
2018-09-04T13:30:58.046Z,26.13
2018-09-04T13:31:58.018Z,26.20
2018-09-04T13:32:57.988Z,26.19
2018-09-04T13:33:57.972Z,26.23
2018-09-04T13:34:58.007Z,26.28
2018-09-04T13:35:58.003Z,26.31
2018-09-04T13:36:57.937Z,26.04
2018-09-04T13:37:57.946Z,26.01
2018-09-04T13:38:57.921Z,25.67
2018-09-04T13:39:57.909Z,25.66
2018-09-04T13:40:57.895Z,25.71
2018-09-04T13:41:57.888Z,25.51
2018-09-04T13:42:57.888Z,25.49
2018-09-04T13:43:57.867Z,25.56
